Time;durP1;ratioP1;P1;durP2;ratioP2;P2;SDS_P1;SDS_P2;PMS_P1;PMS_P2;Temp;Humidity;BMP_temperature;BMP_pressure;BME280_temperature;BME280_humidity;BME280_pressure;Samples;Min_cycle;Max_cycle;Signal;HPM_P1;HPM_P2
2023/07/17 00:01:05;;;;;;;9.13;2.90;;;;;;;17.50;71.20;101478.25;7381044;19;20643;-64
2023/07/17 00:03:33;;;;;;;11.20;2.80;;;;;;;17.48;71.92;101481.19;7383401;19;19947;-64
2023/07/17 00:06:03;;;;;;;6.80;2.42;;;;;;;17.50;71.61;101489.16;7383017;19;19935;-64
2023/07/17 00:08:31;;;;;;;5.82;2.80;;;;;;;17.47;71.64;101489.59;7384621;19;19941;-64
2023/07/17 00:11:00;;;;;;;5.30;2.33;;;;;;;17.45;71.74;101492.50;7380137;19;19922;-64
2023/07/17 00:13:32;;;;;;;11.55;2.53;;;;;;;17.42;72.09;101495.66;7388418;19;20280;-64
2023/07/17 00:16:00;;;;;;;5.50;2.50;;;;;;;17.39;71.89;101492.47;7379241;19;19918;-63
2023/07/17 00:18:30;;;;;;;5.30;2.50;;;;;;;17.39;71.64;101487.03;7383297;19;19953;-63
2023/07/17 00:20:59;;;;;;;4.82;2.63;;;;;;;17.38;72.02;101488.09;7381332;19;19930;-64
2023/07/17 00:23:28;;;;;;;8.93;2.75;;;;;;;17.35;72.13;101483.03;7380258;19;19919;-63
2023/07/17 00:25:56;;;;;;;6.13;2.30;;;;;;;17.34;72.21;101492.28;7382901;19;19926;-63
2023/07/17 00:28:25;;;;;;;5.50;3.13;;;;;;;17.33;71.89;101485.16;7382644;19;19926;-64
2023/07/17 00:30:56;;;;;;;6.55;2.85;;;;;;;17.30;71.74;101475.47;7380803;19;20693;-63
2023/07/17 00:33:26;;;;;;;4.28;2.05;;;;;;;17.30;71.52;101482.84;7383408;19;19962;-64
2023/07/17 00:35:55;;;;;;;6.65;2.60;;;;;;;17.27;71.79;101477.78;7383002;19;20912;-64
2023/07/17 00:38:23;;;;;;;7.13;2.17;;;;;;;17.27;71.89;101477.78;7381787;19;19994;-64
2023/07/17 00:40:52;;;;;;;5.50;2.10;;;;;;;17.27;71.63;101472.34;7380913;19;19930;-64
2023/07/17 00:43:21;;;;;;;8.05;2.45;;;;;;;17.27;71.24;101475.06;7382239;19;20009;-64
2023/07/17 00:45:50;;;;;;;3.50;2.13;;;;;;;17.27;70.92;101464.16;7382344;19;20255;-64
2023/07/17 00:48:22;;;;;;;4.05;1.85;;;;;;;17.30;70.76;101470.03;7383306;19;19943;-63
2023/07/17 00:50:51;;;;;;;3.78;2.20;;;;;;;17.33;70.68;101480.53;7379750;19;19936;-62
2023/07/17 00:53:20;;;;;;;5.53;2.03;;;;;;;17.33;70.55;101482.41;7379488;19;19930;-63
2023/07/17 00:55:49;;;;;;;5.35;1.90;;;;;;;17.32;70.47;101481.56;7378717;19;19926;-64
2023/07/17 00:58:17;;;;;;;3.97;2.00;;;;;;;17.31;70.44;101477.16;7381886;19;19919;-63
2023/07/17 01:00:46;;;;;;;6.03;2.22;;;;;;;17.26;70.78;101492.47;7379458;19;19943;-63
2023/07/17 01:03:15;;;;;;;6.15;2.40;;;;;;;17.22;70.85;101486.56;7382557;19;20546;-63
2023/07/17 01:05:46;;;;;;;3.45;2.10;;;;;;;17.19;71.44;101496.00;7381037;19;19946;-64
2023/07/17 01:08:17;;;;;;;7.40;2.55;;;;;;;17.18;71.61;101497.03;7379557;19;20267;-64
2023/07/17 01:10:46;;;;;;;5.28;2.38;;;;;;;17.15;71.33;101492.00;7380507;19;19929;-64
2023/07/17 01:13:14;;;;;;;7.25;2.45;;;;;;;17.13;71.70;101488.63;7383102;19;19930;-64
2023/07/17 01:15:43;;;;;;;4.88;1.98;;;;;;;17.15;71.50;101491.16;7379697;19;20005;-64
2023/07/17 01:18:13;;;;;;;4.63;1.83;;;;;;;17.14;71.07;101486.75;7381349;19;20638;-64
2023/07/17 01:20:41;;;;;;;5.55;1.50;;;;;;;17.12;71.44;101491.59;7377582;19;19960;-63
2023/07/17 01:23:13;;;;;;;7.30;1.77;;;;;;;17.10;72.78;101489.06;7380038;19;19915;-64
2023/07/17 01:25:41;;;;;;;3.55;1.58;;;;;;;17.08;72.02;101477.56;7379646;19;19927;-63
2023/07/17 01:28:10;;;;;;;8.05;1.95;;;;;;;17.08;72.13;101484.88;7380167;19;19918;-63
2023/07/17 01:30:39;;;;;;;4.65;1.58;;;;;;;17.02;72.12;101481.06;7376821;19;20334;-63
2023/07/17 01:33:08;;;;;;;9.80;2.08;;;;;;;16.97;72.04;101499.91;7363153;19;19927;-64
2023/07/17 01:35:38;;;;;;;5.22;1.95;;;;;;;16.95;72.45;101512.03;7350354;19;19914;-63
2023/07/17 01:38:07;;;;;;;6.32;1.75;;;;;;;16.91;72.77;101506.19;7343881;19;19943;-63
2023/07/17 01:40:38;;;;;;;6.60;2.28;;;;;;;16.89;72.68;101504.69;7346426;19;19961;-64
2023/07/17 01:43:07;;;;;;;8.60;1.95;;;;;;;16.84;72.55;101504.44;7346467;19;20344;-64
2023/07/17 01:45:36;;;;;;;5.72;1.38;;;;;;;16.80;71.94;101498.56;7348260;19;20000;-63
2023/07/17 01:48:04;;;;;;;4.95;1.40;;;;;;;16.77;72.18;101490.81;7366133;19;20025;-63
2023/07/17 01:50:33;;;;;;;6.50;2.03;;;;;;;16.75;72.23;101492.88;7373611;19;19922;-64
2023/07/17 01:53:02;;;;;;;5.50;1.50;;;;;;;16.75;72.17;101491.00;7379625;19;19945;-63
2023/07/17 01:55:30;;;;;;;6.93;1.75;;;;;;;16.70;71.99;101487.22;7378238;19;19919;-64
2023/07/17 01:58:02;;;;;;;3.35;1.50;;;;;;;16.65;72.14;101489.72;7380885;19;19943;-64
2023/07/17 02:00:30;;;;;;;3.45;1.35;;;;;;;16.63;71.53;101480.91;7376585;19;19926;-63
2023/07/17 02:02:59;;;;;;;5.72;2.30;;;;;;;16.61;71.30;101483.00;7379928;19;20344;-64
2023/07/17 02:05:27;;;;;;;4.28;1.42;;;;;;;16.58;71.35;101481.50;7379190;19;19938;-65
2023/07/17 02:07:56;;;;;;;5.60;1.27;;;;;;;16.58;71.22;101484.22;7380208;19;19926;-62
2023/07/17 02:10:25;;;;;;;5.18;1.50;;;;;;;16.55;70.81;101478.31;7377259;19;19943;-63
2023/07/17 02:12:53;;;;;;;4.20;1.23;;;;;;;16.53;70.96;101496.72;7380467;19;20312;-63
2023/07/17 02:15:24;;;;;;;6.78;1.40;;;;;;;16.49;70.91;101499.00;7381049;19;19923;-64
2023/07/17 02:17:53;;;;;;;5.13;1.35;;;;;;;16.47;70.73;101500.25;7379802;19;20017;-64
2023/07/17 02:20:22;;;;;;;5.40;1.40;;;;;;;16.43;70.67;101496.25;7377236;19;19957;-63
2023/07/17 02:22:50;;;;;;;6.35;1.38;;;;;;;16.41;70.38;101493.72;7379331;19;19948;-64
2023/07/17 02:25:19;;;;;;;4.78;1.35;;;;;;;16.40;70.62;101483.88;7378759;19;19956;-63
2023/07/17 02:27:48;;;;;;;7.13;1.33;;;;;;;16.39;70.37;101492.25;7377801;19;20356;-64
2023/07/17 02:30:16;;;;;;;2.78;1.27;;;;;;;16.39;70.27;101489.53;7376477;19;20318;-64
2023/07/17 02:32:48;;;;;;;4.35;1.20;;;;;;;16.38;70.09;101490.56;7381531;19;19926;-64
2023/07/17 02:35:16;;;;;;;3.50;1.23;;;;;;;16.37;70.24;101500.59;7381723;19;19952;-64
2023/07/17 02:37:46;;;;;;;4.18;1.45;;;;;;;16.33;70.03;101494.72;7378476;19;19922;-64
2023/07/17 02:40:15;;;;;;;2.58;1.40;;;;;;;16.32;69.82;101503.91;7379038;19;19947;-65
2023/07/17 02:42:44;;;;;;;3.65;1.27;;;;;;;16.33;69.92;101502.91;7377908;19;20621;-64
2023/07/17 02:45:13;;;;;;;5.05;1.40;;;;;;;16.33;69.25;101516.50;7377207;19;20676;-64
2023/07/17 02:47:41;;;;;;;4.10;1.00;;;;;;;16.31;69.48;101517.69;7383252;19;19930;-63
2023/07/17 02:50:14;;;;;;;3.75;1.25;;;;;;;16.29;68.93;101514.38;7382220;19;19952;-63
2023/07/17 02:52:42;;;;;;;3.72;1.30;;;;;;;16.27;69.10;101514.56;7385845;19;19918;-63
2023/07/17 02:55:13;;;;;;;2.80;1.15;;;;;;;16.26;68.99;101515.63;7382761;19;19926;-63
2023/07/17 02:57:41;;;;;;;4.22;1.50;;;;;;;16.25;69.04;101527.53;7382415;19;19931;-64
2023/07/17 03:00:12;;;;;;;5.38;1.20;;;;;;;16.24;68.59;101519.56;7381889;19;19934;-64
2023/07/17 03:02:42;;;;;;;5.13;1.00;;;;;;;16.22;68.41;101518.94;7385208;19;19953;-62
2023/07/17 03:05:14;;;;;;;3.75;1.20;;;;;;;16.18;68.33;101515.75;7382384;19;19953;-64
2023/07/17 03:07:45;;;;;;;3.50;1.50;;;;;;;16.17;68.57;101516.78;7384999;19;19951;-64
2023/07/17 03:10:14;;;;;;;4.25;1.23;;;;;;;16.18;68.84;101520.38;7384176;19;20782;-64
2023/07/17 03:12:43;;;;;;;5.40;1.25;;;;;;;16.15;68.65;101520.72;7383191;19;19921;-64
2023/07/17 03:15:12;;;;;;;4.65;1.40;;;;;;;16.14;68.58;101524.47;7388864;19;20416;-64
2023/07/17 03:17:41;;;;;;;4.00;1.55;;;;;;;16.13;68.88;101517.38;7382464;19;20122;-63
2023/07/17 03:20:13;;;;;;;5.40;1.30;;;;;;;16.10;69.27;101518.59;7381523;19;20313;-64
2023/07/17 03:22:42;;;;;;;5.38;1.38;;;;;;;16.09;69.07;101516.91;7381912;19;20025;-63
2023/07/17 03:25:11;;;;;;;5.57;1.50;;;;;;;16.08;69.06;101519.84;7381345;19;21299;-64
2023/07/17 03:27:40;;;;;;;3.50;1.15;;;;;;;16.06;69.37;101516.47;7384155;19;20263;-64
2023/07/17 03:30:10;;;;;;;5.63;1.70;;;;;;;16.06;69.59;101521.91;7380912;19;19927;-64
2023/07/17 03:32:39;;;;;;;6.03;1.35;;;;;;;16.05;69.55;101520.25;7385639;19;19922;-64
2023/07/17 03:35:08;;;;;;;5.72;1.30;;;;;;;16.05;69.35;101528.41;7387320;19;19952;-63
2023/07/17 03:37:39;;;;;;;5.07;1.10;;;;;;;16.04;69.58;101530.28;7379659;19;20537;-65
2023/07/17 03:40:10;;;;;;;4.40;1.40;;;;;;;16.04;69.71;101533.00;7382645;19;20202;-65
2023/07/17 03:42:39;;;;;;;4.20;1.20;;;;;;;16.02;69.31;101529.63;7381656;19;19990;-64
2023/07/17 03:45:08;;;;;;;3.75;1.20;;;;;;;16.01;69.37;101525.22;7383118;19;19922;-64
2023/07/17 03:47:37;;;;;;;3.42;1.35;;;;;;;16.01;69.42;101533.38;7383906;19;19922;-64
2023/07/17 03:50:07;;;;;;;3.47;1.50;;;;;;;16.01;69.39;101519.78;7382255;19;20226;-64
2023/07/17 03:52:38;;;;;;;4.97;1.35;;;;;;;16.01;69.49;101522.50;7381527;19;19915;-65
2023/07/17 03:55:08;;;;;;;7.40;1.92;;;;;;;16.00;69.92;101530.88;7382808;19;20488;-64
2023/07/17 03:57:36;;;;;;;6.15;1.60;;;;;;;15.96;70.07;101533.16;7380575;19;20253;-64
2023/07/17 04:00:09;;;;;;;4.38;1.50;;;;;;;15.92;70.23;101531.81;7382484;19;19923;-62
2023/07/17 04:02:38;;;;;;;4.25;1.27;;;;;;;15.87;70.34;101528.88;7382880;19;19939;-63
2023/07/17 04:05:07;;;;;;;6.13;1.63;;;;;;;15.81;70.66;101532.38;7382710;19;19939;-64
2023/07/17 04:07:39;;;;;;;5.55;1.35;;;;;;;15.76;71.42;101526.69;7382582;19;20432;-63
2023/07/17 04:10:08;;;;;;;5.63;1.63;;;;;;;15.74;71.28;101536.91;7381199;19;19922;-63
2023/07/17 04:12:37;;;;;;;6.53;1.45;;;;;;;15.72;71.35;101533.53;7381361;19;19934;-64
2023/07/17 04:15:06;;;;;;;9.50;1.70;;;;;;;15.72;71.48;101530.81;7386618;19;20493;-63
2023/07/17 04:17:35;;;;;;;6.72;1.30;;;;;;;15.70;71.63;101535.63;7380282;19;19926;-63
2023/07/17 04:20:04;;;;;;;6.47;1.38;;;;;;;15.69;71.69;101531.22;7379559;19;19922;-63
2023/07/17 04:22:32;;;;;;;6.45;1.70;;;;;;;15.68;71.80;101534.97;7378662;19;19992;-64
2023/07/17 04:25:04;;;;;;;7.05;1.60;;;;;;;15.65;72.33;101541.63;7383560;19;19922;-64
2023/07/17 04:27:33;;;;;;;;;;;;;;;15.44;73.44;101545.13;7384669;19;19926;-64
2023/07/17 04:30:01;;;;;;;5.97;1.95;;;;;;;15.55;72.50;101535.66;7382127;19;19933;-63
2023/07/17 04:32:30;;;;;;;4.90;1.48;;;;;;;15.57;72.52;101544.47;7382811;19;19922;-64
2023/07/17 04:34:59;;;;;;;3.85;1.45;;;;;;;15.58;72.51;101546.13;7384460;19;19929;-63
2023/07/17 04:37:27;;;;;;;5.22;1.25;;;;;;;15.61;72.24;101542.22;7380181;19;19944;-63
2023/07/17 04:39:56;;;;;;;4.43;1.52;;;;;;;15.62;72.21;101547.44;7381202;19;19943;-64
2023/07/17 04:42:28;;;;;;;4.60;1.40;;;;;;;15.64;72.74;101555.41;7379802;19;19914;-64
2023/07/17 04:44:57;;;;;;;6.95;1.58;;;;;;;15.64;72.35;101558.13;7380659;19;19926;-64
2023/07/17 04:47:25;;;;;;;5.85;1.60;;;;;;;15.66;72.42;101554.16;7378772;19;19926;-64
2023/07/17 04:49:55;;;;;;;8.50;2.13;;;;;;;15.68;72.52;101546.66;7381798;19;19918;-65
2023/07/17 04:52:24;;;;;;;8.90;1.60;;;;;;;15.72;72.38;101552.56;7381510;19;19923;-64
2023/07/17 04:54:53;;;;;;;6.97;1.30;;;;;;;15.76;72.01;101545.69;7380443;19;19918;-64
2023/07/17 04:57:22;;;;;;;5.90;2.08;;;;;;;15.77;72.31;101539.22;7381501;19;19926;-64
2023/07/17 04:59:53;;;;;;;7.80;1.58;;;;;;;15.79;72.71;101557.00;7381771;19;19970;-64
2023/07/17 05:02:22;;;;;;;7.05;1.80;;;;;;;15.81;72.83;101554.09;7377213;19;19918;-65
2023/07/17 05:04:51;;;;;;;5.22;1.38;;;;;;;15.82;72.11;101550.34;7344299;19;20774;-62
2023/07/17 05:07:19;;;;;;;6.78;1.50;;;;;;;15.81;72.91;101546.81;7346676;19;19957;-62
2023/07/17 05:09:48;;;;;;;5.65;1.73;;;;;;;15.80;72.52;101550.53;7339226;19;19926;-64
2023/07/17 05:12:17;;;;;;;6.53;1.45;;;;;;;15.80;72.29;101549.69;7350564;19;20350;-64
2023/07/17 05:14:45;;;;;;;5.32;1.77;;;;;;;15.79;72.87;101554.28;7354404;19;19922;-65
2023/07/17 05:17:16;;;;;;;5.13;1.73;;;;;;;15.78;73.46;101547.19;7356621;19;20292;-64
2023/07/17 05:19:45;;;;;;;7.25;1.75;;;;;;;15.78;72.97;101541.75;7373341;19;20354;-64
2023/07/17 05:22:14;;;;;;;9.82;2.28;;;;;;;15.81;73.14;101543.25;7376483;19;19930;-64
2023/07/17 05:24:42;;;;;;;7.10;1.60;;;;;;;15.83;73.21;101533.84;7378103;19;20485;-64
2023/07/17 05:27:11;;;;;;;6.70;1.85;;;;;;;15.87;72.86;101542.47;7380292;19;19935;-64
2023/07/17 05:29:42;;;;;;;6.97;2.50;;;;;;;15.89;72.78;101541.22;7379162;19;19914;-65
2023/07/17 05:32:11;;;;;;;8.20;2.05;;;;;;;15.93;72.83;101543.53;7381813;19;19939;-64
2023/07/17 05:34:42;;;;;;;7.90;2.10;;;;;;;15.96;73.10;101543.19;7381853;19;19926;-64
2023/07/17 05:37:11;;;;;;;7.85;1.77;;;;;;;15.99;72.89;101543.63;7381029;19;19987;-64
2023/07/17 05:39:39;;;;;;;6.38;1.90;;;;;;;16.02;73.02;101548.66;7379447;19;19957;-64
2023/07/17 05:42:08;;;;;;;6.05;1.90;;;;;;;16.06;72.48;101549.94;7381738;19;19947;-64
2023/07/17 05:44:38;;;;;;;10.52;2.33;;;;;;;16.08;72.52;101566.91;7380161;19;19938;-64
2023/07/17 05:47:07;;;;;;;7.35;1.90;;;;;;;16.13;72.33;101548.13;7381993;19;19919;-64
2023/07/17 05:49:35;;;;;;;6.40;1.85;;;;;;;16.16;72.39;101545.00;7381443;19;19929;-63
2023/07/17 05:52:07;;;;;;;6.78;2.00;;;;;;;16.21;72.15;101556.16;7379617;19;19922;-65
2023/07/17 05:54:36;;;;;;;6.78;1.67;;;;;;;16.23;72.06;101562.22;7376653;19;20264;-64
2023/07/17 05:57:05;;;;;;;6.88;1.80;;;;;;;16.28;71.92;101559.75;7377422;19;20360;-63
2023/07/17 05:59:33;;;;;;;5.40;2.00;;;;;;;16.33;71.98;101564.59;7380310;19;20027;-63
2023/07/17 06:02:02;;;;;;;6.55;1.85;;;;;;;16.43;71.63;101575.13;7381725;19;19930;-65
2023/07/17 06:04:31;;;;;;;8.30;2.38;;;;;;;16.50;71.78;101573.28;7378396;19;19939;-65
2023/07/17 06:07:00;;;;;;;7.43;2.20;;;;;;;16.52;71.36;101579.38;7379522;19;19925;-65
2023/07/17 06:09:31;;;;;;;9.00;2.53;;;;;;;16.54;71.34;101589.00;7378829;19;19918;-65
2023/07/17 06:11:59;;;;;;;8.00;2.45;;;;;;;16.61;71.24;101586.38;7374033;19;19922;-64
2023/07/17 06:14:28;;;;;;;4.85;1.80;;;;;;;16.65;70.87;101609.44;7380261;19;19922;-64
2023/07/17 06:16:57;;;;;;;8.02;2.00;;;;;;;16.69;70.83;101605.28;7377564;19;19919;-67
2023/07/17 06:19:26;;;;;;;6.60;2.45;;;;;;;16.68;71.08;101590.81;7372021;19;19919;-65
2023/07/17 06:21:55;;;;;;;12.55;2.35;;;;;;;16.69;71.21;101587.06;7379736;19;19930;-64
2023/07/17 06:24:23;;;;;;;7.53;2.30;;;;;;;16.67;70.83;101593.72;7380433;19;20010;-63
2023/07/17 06:26:54;;;;;;;8.77;2.40;;;;;;;16.69;70.93;101602.56;7383926;19;19923;-65
2023/07/17 06:29:23;;;;;;;5.63;1.67;;;;;;;16.74;70.64;101594.59;7383055;19;19955;-65
2023/07/17 06:31:52;;;;;;;8.07;2.63;;;;;;;16.79;70.25;101592.97;7380561;19;20344;-66
2023/07/17 06:34:21;;;;;;;8.60;2.35;;;;;;;16.87;70.00;101597.41;7384491;19;19940;-65
2023/07/17 06:36:52;;;;;;;6.97;2.22;;;;;;;16.92;69.98;101600.38;7386200;19;21784;-66
2023/07/17 06:39:21;;;;;;;10.05;2.85;;;;;;;16.95;69.69;101605.44;7383729;19;19943;-65
2023/07/17 06:41:49;;;;;;;11.07;2.35;;;;;;;16.93;69.97;101603.94;7382615;19;19953;-64
2023/07/17 06:44:21;;;;;;;6.38;2.10;;;;;;;16.93;69.82;101604.78;7382652;19;20428;-63
2023/07/17 06:46:50;;;;;;;5.15;1.95;;;;;;;16.96;70.31;101607.09;7377289;19;20356;-66
2023/07/17 06:49:19;;;;;;;9.88;2.75;;;;;;;17.01;69.63;101615.50;7380698;19;19918;-63
2023/07/17 06:51:47;;;;;;;6.15;2.25;;;;;;;17.02;69.82;101603.56;7381646;19;20197;-63
2023/07/17 06:54:16;;;;;;;8.52;2.05;;;;;;;17.05;69.60;101610.50;7376981;19;20854;-63
2023/07/17 06:56:45;;;;;;;6.50;2.03;;;;;;;17.05;69.76;101611.34;7374785;19;20344;-64
2023/07/17 06:59:14;;;;;;;5.00;2.28;;;;;;;17.04;69.40;101625.97;7380661;19;19926;-64
2023/07/17 07:01:45;;;;;;;6.28;2.08;;;;;;;16.99;69.82;101623.03;7378610;19;20047;-64
2023/07/17 07:04:14;;;;;;;6.78;2.47;;;;;;;17.02;69.67;101621.78;7382455;19;19957;-64
2023/07/17 07:06:42;;;;;;;5.75;2.35;;;;;;;17.09;69.49;101625.38;7379456;19;19915;-64
2023/07/17 07:09:11;;;;;;;5.88;2.35;;;;;;;17.17;69.19;101647.84;7378667;19;19937;-64
2023/07/17 07:11:40;;;;;;;10.02;2.30;;;;;;;17.21;68.38;101649.13;7381477;19;19930;-64
2023/07/17 07:14:08;;;;;;;8.15;3.00;;;;;;;17.21;68.38;101632.78;7387541;19;19926;-63
2023/07/17 07:16:37;;;;;;;9.88;3.03;;;;;;;17.17;68.26;101634.22;7384679;19;20380;-64
2023/07/17 07:19:08;;;;;;;8.25;2.42;;;;;;;17.17;68.76;101647.84;7379377;19;19918;-63
2023/07/17 07:21:36;;;;;;;11.50;2.97;;;;;;;17.16;68.78;101646.19;7378316;19;19978;-64
2023/07/17 07:24:05;;;;;;;8.05;2.60;;;;;;;17.14;68.81;101637.34;7379343;19;19947;-64
2023/07/17 07:26:36;;;;;;;8.40;2.38;;;;;;;17.17;68.32;101641.56;7375714;19;19947;-66
2023/07/17 07:29:05;;;;;;;9.95;2.88;;;;;;;17.23;68.00;101636.16;7382689;19;19946;-65
2023/07/17 07:31:33;;;;;;;12.68;3.47;;;;;;;17.31;68.09;101670.53;7379330;19;19926;-66
2023/07/17 07:34:02;;;;;;;7.68;2.75;;;;;;;17.39;67.73;101645.84;7380896;19;19918;-64
2023/07/17 07:36:33;;;;;;;10.55;2.63;;;;;;;17.48;66.80;101655.53;7383529;19;19926;-63
2023/07/17 07:39:05;;;;;;;11.13;2.83;;;;;;;17.61;67.16;101662.94;7379414;19;19935;-63
2023/07/17 07:41:34;;;;;;;9.18;2.95;;;;;;;17.73;66.13;101664.06;7382203;19;19938;-65
2023/07/17 07:44:02;;;;;;;9.50;2.88;;;;;;;17.86;65.84;101676.91;7382009;19;19922;-65
2023/07/17 07:46:31;;;;;;;7.38;2.75;;;;;;;17.97;65.69;101651.75;7382937;19;20261;-65
2023/07/17 07:49:01;;;;;;;6.82;2.28;;;;;;;17.99;65.07;101675.03;7380273;19;19921;-65
2023/07/17 07:51:29;;;;;;;9.77;2.90;;;;;;;18.07;64.57;101660.38;7380020;19;19919;-65
2023/07/17 07:54:01;;;;;;;8.93;3.08;;;;;;;18.14;63.98;101667.50;7382665;19;20560;-65
2023/07/17 07:56:29;;;;;;;8.27;2.70;;;;;;;18.27;64.47;101660.38;7380579;19;19947;-65
2023/07/17 07:58:58;;;;;;;6.95;2.67;;;;;;;18.43;64.46;101665.44;7377624;19;20328;-65
2023/07/17 08:01:27;;;;;;;7.68;2.90;;;;;;;18.55;64.12;101675.53;7375980;19;19957;-65
2023/07/17 08:03:55;;;;;;;9.70;2.63;;;;;;;18.64;64.34;101670.72;7381866;19;19927;-65
2023/07/17 08:06:24;;;;;;;12.80;2.75;;;;;;;18.68;63.43;101669.25;7378812;19;20272;-65
2023/07/17 08:08:53;;;;;;;8.38;2.40;;;;;;;18.64;63.23;101669.91;7385125;19;19919;-65
2023/07/17 08:11:24;;;;;;;5.90;2.72;;;;;;;18.58;62.46;101698.88;7379992;19;20364;-65
2023/07/17 08:13:52;;;;;;;8.60;2.60;;;;;;;18.59;62.51;101676.81;7387050;19;19922;-65
2023/07/17 08:16:21;;;;;;;7.80;2.30;;;;;;;18.60;62.94;101683.09;7380773;19;19947;-65
2023/07/17 08:18:50;;;;;;;11.13;2.65;;;;;;;18.63;62.57;101690.06;7376190;19;19922;-66
2023/07/17 08:21:18;;;;;;;7.07;2.78;;;;;;;18.66;62.76;101697.81;7375611;19;20607;-65
2023/07/17 08:23:48;;;;;;;10.40;3.08;;;;;;;18.64;62.72;101700.72;7378625;19;19934;-66
2023/07/17 08:26:17;;;;;;;12.13;2.90;;;;;;;18.49;62.54;101711.00;7377082;19;19926;-65
2023/07/17 08:28:48;;;;;;;3.83;1.38;;;;;;;18.11;62.69;101718.91;7377440;19;19919;-65
2023/07/17 08:31:16;;;;;;;4.85;1.55;;;;;;;17.71;65.84;101736.16;7377943;19;20451;-65
2023/07/17 08:33:45;;;;;;;5.43;1.65;;;;;;;17.23;67.57;101723.28;7380171;19;19992;-65
2023/07/17 08:36:14;;;;;;;5.40;1.92;;;;;;;16.89;69.07;101714.25;7384838;19;20344;-65
2023/07/17 08:38:42;;;;;;;4.53;1.90;;;;;;;16.60;70.79;101724.28;7363481;19;19944;-65
2023/07/17 08:41:13;;;;;;;8.10;2.25;;;;;;;16.37;72.70;101728.19;7346002;19;20534;-65
2023/07/17 08:43:42;;;;;;;5.20;1.77;;;;;;;16.14;73.47;101734.66;7344351;19;19925;-65
2023/07/17 08:46:15;;;;;;;6.03;1.75;;;;;;;15.95;75.17;101727.13;7347319;19;19918;-65
2023/07/17 08:48:47;;;;;;;5.55;2.22;;;;;;;15.82;74.99;101735.13;7374340;19;19926;-65
2023/07/17 08:51:17;;;;;;;4.63;1.85;;;;;;;15.76;75.46;101717.69;7380784;19;19925;-65
2023/07/17 08:53:47;;;;;;;4.75;1.70;;;;;;;15.85;75.31;101721.13;7402195;19;20349;-65
2023/07/17 08:56:15;;;;;;;8.30;2.28;;;;;;;15.94;75.83;101730.03;7384466;19;20312;-65
2023/07/17 08:58:44;;;;;;;5.03;2.30;;;;;;;16.02;75.65;101727.19;7379927;19;20387;-65
2023/07/17 09:01:15;;;;;;;5.15;2.17;;;;;;;16.11;76.92;101720.59;7381803;19;19926;-64
2023/07/17 09:03:44;;;;;;;7.95;2.72;;;;;;;16.30;75.47;101720.84;7380181;19;20555;-65
2023/07/17 09:06:16;;;;;;;9.68;2.80;;;;;;;16.52;77.06;101729.84;7377791;19;20035;-65
2023/07/17 09:08:45;;;;;;;7.38;2.28;;;;;;;16.74;77.26;101727.94;7380670;19;19975;-64
2023/07/17 09:11:13;;;;;;;7.47;3.05;;;;;;;16.89;76.44;101727.84;7378382;19;19922;-66
2023/07/17 09:13:44;;;;;;;6.22;2.80;;;;;;;17.03;76.01;101719.59;7386178;19;19918;-64
2023/07/17 09:16:20;;;;;;;9.60;3.17;;;;;;;17.20;76.26;101725.59;7378182;19;20415;-65
2023/07/17 09:18:49;;;;;;;9.02;2.95;;;;;;;17.32;73.51;101723.13;7376900;19;19927;-65
2023/07/17 09:21:19;;;;;;;7.25;2.42;;;;;;;17.40;72.50;101728.41;7378059;19;20351;-65
2023/07/17 09:23:50;;;;;;;6.55;2.30;;;;;;;17.49;72.07;101732.66;7379401;19;19938;-65
2023/07/17 09:26:20;;;;;;;6.85;2.63;;;;;;;17.60;71.48;101737.59;7380857;19;19925;-65
2023/07/17 09:28:51;;;;;;;8.75;2.70;;;;;;;17.63;72.25;101738.03;7379929;19;19926;-66
2023/07/17 09:31:29;;;;;;;10.35;2.80;;;;;;;17.60;72.52;101734.88;7375879;19;19926;-65
2023/07/17 09:34:00;;;;;;;12.13;2.85;;;;;;;17.66;71.87;101734.03;7379921;19;19923;-65
2023/07/17 09:36:29;;;;;;;7.30;2.85;;;;;;;17.62;71.95;101732.75;7384837;19;19926;-65
2023/07/17 09:38:59;;;;;;;7.55;2.83;;;;;;;17.68;71.89;101745.59;7377584;19;20276;-66
2023/07/17 09:41:29;;;;;;;6.05;2.30;;;;;;;17.80;71.18;101733.06;7382105;19;19978;-65
2023/07/17 09:44:03;;;;;;;6.80;3.13;;;;;;;17.85;70.19;101738.75;7379842;19;20005;-65
2023/07/17 09:46:35;;;;;;;6.82;2.45;;;;;;;17.76;70.59;101734.50;7376808;19;19926;-66
2023/07/17 09:49:06;;;;;;;10.82;3.28;;;;;;;17.75;71.05;101746.44;7377007;19;19915;-66
2023/07/17 09:51:36;;;;;;;6.63;2.47;;;;;;;17.82;70.59;101749.22;7381325;19;19922;-65
2023/07/17 09:54:05;;;;;;;7.70;2.33;;;;;;;17.83;70.53;101751.72;7377892;19;19919;-66
2023/07/17 09:56:35;;;;;;;7.43;2.55;;;;;;;17.84;70.23;101750.69;7378657;19;20273;-65
2023/07/17 09:59:14;;;;;;;5.80;2.78;;;;;;;18.03;70.27;101752.63;7374657;19;19918;-65
2023/07/17 10:01:48;;;;;;;9.68;2.92;;;;;;;18.26;70.84;101744.09;7376998;19;19978;-65
2023/07/17 10:04:19;;;;;;;9.27;2.33;;;;;;;18.47;68.44;101751.28;7378943;19;19923;-65
2023/07/17 10:06:52;;;;;;;7.00;2.50;;;;;;;18.63;68.79;101750.94;7380223;19;19918;-65
2023/07/17 10:09:23;;;;;;;6.70;2.42;;;;;;;18.78;68.14;101751.56;7377935;19;19986;-65
2023/07/17 10:11:52;;;;;;;3.70;1.90;;;;;;;18.87;65.24;101747.56;7378254;19;20343;-65
2023/07/17 10:14:22;;;;;;;5.15;1.63;;;;;;;19.15;64.93;101751.97;7382423;19;19931;-65
2023/07/17 10:16:54;;;;;;;7.43;1.77;;;;;;;19.44;62.38;101744.19;7377689;19;19922;-65
2023/07/17 10:19:23;;;;;;;7.03;1.77;;;;;;;19.67;61.74;101740.97;7371635;19;19919;-65
2023/07/17 10:21:56;;;;;;;3.03;1.38;;;;;;;19.85;60.02;101749.28;7369811;19;19943;-66
2023/07/17 10:24:26;;;;;;;6.47;1.50;;;;;;;20.05;60.66;101740.16;7375150;19;20738;-66
2023/07/17 10:26:55;;;;;;;6.32;1.73;;;;;;;20.12;59.33;101743.69;7377343;19;20026;-66
2023/07/17 10:29:33;;;;;;;3.85;1.40;;;;;;;20.11;51.95;101752.94;7378882;19;20371;-67
2023/07/17 10:32:11;;;;;;;4.43;1.10;;;;;;;20.21;53.57;101756.91;7377569;19;19939;-66
2023/07/17 10:34:50;;;;;;;5.88;1.25;;;;;;;20.23;53.02;101749.34;7378091;19;19918;-65
2023/07/17 10:37:43;;;;;;;5.88;1.63;;;;;;;20.36;53.10;101753.91;7381626;19;20292;-65
2023/07/17 10:40:28;;;;;;;3.20;1.38;;;;;;;20.02;53.46;101754.28;7376245;19;19938;-65
2023/07/17 10:42:57;;;;;;;3.47;1.50;;;;;;;19.88;55.78;101767.19;7376004;19;19943;-66
2023/07/17 10:45:36;;;;;;;3.35;1.38;;;;;;;19.69;53.53;101762.59;7377950;19;19926;-65
2023/07/17 10:48:08;;;;;;;6.90;1.77;;;;;;;19.87;56.11;101765.50;7373378;19;19918;-66
2023/07/17 10:50:37;;;;;;;4.63;1.48;;;;;;;20.06;54.86;101774.69;7376153;19;19971;-65
2023/07/17 10:53:09;;;;;;;2.80;1.10;;;;;;;20.26;54.74;101762.56;7376350;19;20041;-66
2023/07/17 10:55:38;;;;;;;2.58;1.00;;;;;;;20.40;52.40;101774.31;7371863;19;20308;-66
2023/07/17 10:58:07;;;;;;;3.67;1.10;;;;;;;20.51;53.22;101778.25;7374935;19;21828;-66
2023/07/17 11:00:36;;;;;;;6.10;1.30;;;;;;;20.58;52.02;101776.31;7377179;19;20250;-66
2023/07/17 11:03:07;;;;;;;4.00;1.50;;;;;;;20.64;51.11;101768.03;7376098;19;20384;-66
2023/07/17 11:05:39;;;;;;;5.15;1.60;;;;;;;20.75;49.01;101774.72;7375944;19;19925;-66
2023/07/17 11:08:09;;;;;;;3.78;1.40;;;;;;;20.73;49.39;101774.94;7379694;19;19922;-66
2023/07/17 11:10:41;;;;;;;5.60;1.40;;;;;;;20.74;49.81;101775.78;7384003;19;19930;-67
2023/07/17 11:13:10;;;;;;;4.95;1.17;;;;;;;20.91;50.45;101765.09;7383286;19;19926;-67
2023/07/17 11:15:39;;;;;;;3.25;1.33;;;;;;;21.09;50.14;101784.34;7384282;19;20017;-67
2023/07/17 11:18:10;;;;;;;3.80;1.27;;;;;;;21.26;49.68;101760.81;7385321;19;19932;-68
2023/07/17 11:20:39;;;;;;;2.22;1.13;;;;;;;21.45;49.59;101784.44;7379162;19;20714;-67
2023/07/17 11:23:12;;;;;;;3.03;1.30;;;;;;;21.29;48.41;101771.31;7380852;19;19929;-66
2023/07/17 11:25:42;;;;;;;4.20;1.55;;;;;;;21.20;50.16;101783.63;7381255;19;19933;-66
2023/07/17 11:28:10;;;;;;;6.03;1.40;;;;;;;21.26;49.65;101785.47;7380892;19;19926;-66
2023/07/17 11:30:39;;;;;;;3.45;1.40;;;;;;;21.31;49.42;101776.59;7378536;19;19927;-66
2023/07/17 11:33:12;;;;;;;6.70;1.20;;;;;;;21.37;49.25;101798.44;7381270;19;19926;-66
2023/07/17 11:35:42;;;;;;;3.20;1.30;;;;;;;21.52;48.62;101796.19;7384568;19;19933;-65